createdAt,value
2023-02-25T00:01:14.433Z,100819.25
2023-02-25T00:06:36.174Z,100825.88
2023-02-25T00:11:57.929Z,100832.16
2023-02-25T00:17:19.648Z,100830.75
2023-02-25T00:22:42.178Z,100833.78
2023-02-25T00:28:06.521Z,100827.31
2023-02-25T00:33:28.372Z,100825.88
2023-02-25T00:38:52.262Z,100816.63
2023-02-25T00:44:14.068Z,100822.94
2023-02-25T00:49:36.171Z,100820.66
2023-02-25T00:54:57.895Z,100822.84
2023-02-25T01:00:20.034Z,100823.09
2023-02-25T01:05:42.149Z,100821.41
2023-02-25T01:11:14.468Z,100833.34
2023-02-25T01:16:36.515Z,100833.00
2023-02-25T01:21:59.750Z,100833.25
2023-02-25T01:27:21.527Z,100825.47
2023-02-25T01:32:43.305Z,100828.72
2023-02-25T01:38:05.116Z,100830.06
2023-02-25T01:43:28.626Z,100834.16
2023-02-25T01:48:50.343Z,100835.53
2023-02-25T01:54:13.808Z,100829.66
2023-02-25T02:04:57.988Z,100845.09
2023-02-25T02:10:19.884Z,100848.13
2023-02-25T02:15:48.327Z,100841.72
2023-02-25T02:21:18.159Z,100846.66
2023-02-25T02:26:45.789Z,100839.47
2023-02-25T02:32:31.708Z,100847.19
2023-02-25T02:38:13.052Z,100844.91
2023-02-25T02:43:58.197Z,100844.56
2023-02-25T02:49:49.225Z,100840.13
2023-02-25T02:55:22.641Z,100844.22
2023-02-25T03:00:48.729Z,100847.00
2023-02-25T03:06:23.943Z,100846.41
2023-02-25T03:11:45.922Z,100857.97
2023-02-25T03:17:15.646Z,100857.13
2023-02-25T03:22:41.287Z,100852.94
2023-02-25T03:28:04.852Z,100863.94
2023-02-25T03:33:32.377Z,100862.84
2023-02-25T03:38:58.623Z,100864.16
2023-02-25T03:44:26.834Z,100850.56
2023-02-25T03:49:59.833Z,100869.97
2023-02-25T03:55:21.774Z,100870.44
2023-02-25T04:00:46.272Z,100871.53
2023-02-25T04:06:08.021Z,100864.31
2023-02-25T04:11:29.834Z,100860.94
2023-02-25T04:16:51.695Z,100872.00
2023-02-25T04:22:13.465Z,100867.59
2023-02-25T04:27:35.240Z,100876.38
2023-02-25T04:32:57.125Z,100876.88
2023-02-25T04:38:18.922Z,100877.94
2023-02-25T04:43:40.745Z,100882.88
2023-02-25T04:49:03.765Z,100889.50
2023-02-25T04:54:25.477Z,100891.91
2023-02-25T04:59:47.465Z,100896.63
2023-02-25T05:05:10.424Z,100899.63
2023-02-25T05:10:32.287Z,100898.19
2023-02-25T05:16:04.215Z,100896.75
2023-02-25T05:21:26.879Z,100894.22
2023-02-25T05:26:48.594Z,100892.53
2023-02-25T05:32:10.394Z,100885.34
2023-02-25T05:37:32.694Z,100887.50
2023-02-25T05:42:54.445Z,100884.13
2023-02-25T05:48:16.197Z,100882.44
2023-02-25T05:53:38.094Z,100891.22
2023-02-25T05:58:59.878Z,100892.31
2023-02-25T06:04:22.322Z,100905.56
2023-02-25T06:09:44.122Z,100902.22
2023-02-25T06:15:06.269Z,100893.31
2023-02-25T06:20:28.580Z,100901.84
2023-02-25T06:25:50.312Z,100913.41
2023-02-25T06:31:15.515Z,100905.94
2023-02-25T06:36:37.396Z,100920.63
2023-02-25T06:41:59.531Z,100932.28
2023-02-25T06:47:22.746Z,100936.00
2023-02-25T06:52:44.557Z,100948.22
2023-02-25T06:58:06.734Z,100945.03
2023-02-25T07:03:28.532Z,100948.97
2023-02-25T07:08:50.847Z,100960.38
2023-02-25T07:14:16.486Z,100961.50
2023-02-25T07:19:38.221Z,100972.59
2023-02-25T07:25:00.169Z,100966.09
2023-02-25T07:30:22.349Z,100971.72
2023-02-25T07:35:44.083Z,100968.94
2023-02-25T07:41:11.449Z,100973.59
2023-02-25T07:46:33.979Z,100972.44
2023-02-25T07:51:55.809Z,100975.94
2023-02-25T07:57:17.518Z,100971.16
2023-02-25T08:02:39.913Z,100980.00
2023-02-25T08:08:01.728Z,100986.81
2023-02-25T08:13:23.441Z,101002.53
2023-02-25T08:18:45.289Z,101001.25
2023-02-25T08:24:08.294Z,100999.16
2023-02-25T08:29:30.200Z,101005.88
2023-02-25T08:34:52.824Z,101003.69
2023-02-25T08:40:15.253Z,101012.03
2023-02-25T08:45:38.231Z,101016.09
2023-02-25T08:51:05.522Z,101002.44
2023-02-25T08:56:27.703Z,101005.06
2023-02-25T09:01:50.540Z,100995.94
2023-02-25T09:07:16.675Z,101001.28
2023-02-25T09:12:38.894Z,101006.00
2023-02-25T09:18:00.607Z,101013.34
2023-02-25T09:23:22.317Z,101008.69
2023-02-25T09:28:44.230Z,101020.06
2023-02-25T09:34:08.979Z,101008.56
2023-02-25T09:39:31.054Z,101007.53
2023-02-25T09:44:59.874Z,101017.41
2023-02-25T09:50:27.064Z,101026.59
2023-02-25T09:55:52.884Z,101036.66
2023-02-25T10:01:27.106Z,101048.47
2023-02-25T10:06:51.248Z,101049.31
2023-02-25T10:12:41.172Z,101052.44
2023-02-25T10:18:33.107Z,101063.78
2023-02-25T10:23:55.019Z,101064.59
2023-02-25T10:29:36.873Z,101047.53
2023-02-25T10:35:01.686Z,101058.69
2023-02-25T10:40:26.826Z,101058.84
2023-02-25T10:45:55.453Z,101060.19
2023-02-25T10:51:17.257Z,101063.13
2023-02-25T10:56:45.378Z,101071.44
2023-02-25T11:02:30.441Z,101066.38
2023-02-25T11:07:52.593Z,101069.78
2023-02-25T11:13:29.017Z,101064.22
2023-02-25T11:18:57.792Z,101066.19
2023-02-25T11:24:31.513Z,101070.00
2023-02-25T11:29:53.784Z,101068.22
2023-02-25T11:35:20.372Z,101082.19
2023-02-25T11:40:44.601Z,101079.03
2023-02-25T11:46:12.173Z,101069.63
2023-02-25T11:51:52.478Z,101068.81
2023-02-25T11:57:27.951Z,101096.44
2023-02-25T12:03:07.900Z,101094.25
2023-02-25T12:08:37.712Z,101097.63
2023-02-25T12:14:16.713Z,101103.53
2023-02-25T12:19:57.365Z,101119.34
2023-02-25T12:25:27.845Z,101123.09
2023-02-25T12:31:40.632Z,101112.34
2023-02-25T12:37:33.959Z,101105.25
2023-02-25T12:43:02.956Z,101090.31
2023-02-25T12:48:35.551Z,101088.97
2023-02-25T12:54:22.067Z,101096.19
2023-02-25T13:00:02.444Z,101088.97
2023-02-25T13:05:58.869Z,101091.13
2023-02-25T13:11:31.270Z,101082.00
2023-02-25T13:17:16.651Z,101089.44
2023-02-25T13:22:59.085Z,101091.88
2023-02-25T13:28:38.215Z,101091.53
2023-02-25T13:34:39.356Z,101103.69
2023-02-25T13:40:36.602Z,101099.97
2023-02-25T13:46:37.666Z,101109.28
2023-02-25T13:52:21.584Z,101132.91
2023-02-25T13:58:20.723Z,101139.00
2023-02-25T14:04:09.173Z,101138.41
2023-02-25T14:09:35.809Z,101134.53
2023-02-25T14:15:12.782Z,101140.06
2023-02-25T14:20:59.406Z,101141.44
2023-02-25T14:26:30.636Z,101145.66
2023-02-25T14:31:59.345Z,101142.25
2023-02-25T14:37:50.096Z,101140.78
2023-02-25T14:43:33.338Z,101149.16
2023-02-25T14:49:21.481Z,101155.00
2023-02-25T14:55:14.230Z,101163.34
2023-02-25T15:00:55.765Z,101169.50
2023-02-25T15:06:26.882Z,101178.69
2023-02-25T15:12:26.629Z,101184.59
2023-02-25T15:18:07.073Z,101180.25
2023-02-25T15:23:51.569Z,101194.00
2023-02-25T15:29:29.400Z,101193.66
2023-02-25T15:34:53.770Z,101207.84
2023-02-25T15:40:15.477Z,101219.53
2023-02-25T15:45:38.860Z,101230.88
2023-02-25T15:51:01.990Z,101240.66
2023-02-25T15:56:28.387Z,101246.19
2023-02-25T16:01:50.277Z,101255.78
2023-02-25T16:07:15.891Z,101262.00
2023-02-25T16:12:38.787Z,101266.66
2023-02-25T16:18:16.109Z,101271.38
2023-02-25T16:23:41.246Z,101278.59
2023-02-25T16:29:15.296Z,101277.94
2023-02-25T16:34:42.068Z,101286.59
2023-02-25T16:40:05.233Z,101294.13
2023-02-25T16:45:31.204Z,101307.56
2023-02-25T16:50:54.555Z,101297.47
2023-02-25T16:56:23.361Z,101313.03
2023-02-25T17:02:00.278Z,101313.63
2023-02-25T17:07:28.030Z,101332.81
2023-02-25T17:12:49.868Z,101339.53
2023-02-25T17:18:46.099Z,101346.41
2023-02-25T17:24:17.351Z,101351.47
2023-02-25T17:29:40.240Z,101371.63
2023-02-25T17:35:03.696Z,101385.41
2023-02-25T17:40:27.643Z,101394.56
2023-02-25T17:45:58.441Z,101399.53
2023-02-25T17:51:30.317Z,101416.50
2023-02-25T17:57:02.077Z,101412.34
2023-02-25T18:02:34.381Z,101427.28
2023-02-25T18:08:24.857Z,101433.13
2023-02-25T18:13:46.578Z,101439.28
2023-02-25T18:19:12.220Z,101449.06
2023-02-25T18:24:36.712Z,101457.03
2023-02-25T18:30:21.663Z,101474.13
2023-02-25T18:35:46.234Z,101477.00
2023-02-25T18:41:08.157Z,101483.22
2023-02-25T18:46:29.937Z,101488.00
2023-02-25T18:51:52.327Z,101507.97
2023-02-25T18:57:22.601Z,101502.22
2023-02-25T19:02:53.251Z,101508.28
2023-02-25T19:08:16.993Z,101516.28
2023-02-25T19:13:42.128Z,101512.47
2023-02-25T19:19:04.276Z,101521.97
2023-02-25T19:24:25.980Z,101526.94
2023-02-25T19:29:54.550Z,101536.25
2023-02-25T19:35:16.883Z,101532.44
2023-02-25T19:40:38.643Z,101541.91
2023-02-25T19:46:00.961Z,101545.09
2023-02-25T19:51:23.201Z,101554.28
2023-02-25T19:56:45.299Z,101565.53
2023-02-25T20:02:07.139Z,101569.47
2023-02-25T20:07:28.979Z,101573.88
2023-02-25T20:12:50.767Z,101592.22
2023-02-25T20:18:12.521Z,101584.91
2023-02-25T20:23:34.744Z,101592.59
2023-02-25T20:28:57.606Z,101596.34
2023-02-25T20:34:22.012Z,101597.44
2023-02-25T20:39:48.081Z,101599.88
2023-02-25T20:45:15.149Z,101613.28
2023-02-25T20:50:38.442Z,101616.78
2023-02-25T20:56:00.451Z,101621.38
2023-02-25T21:01:22.571Z,101636.09
2023-02-25T21:06:44.460Z,101639.72
2023-02-25T21:12:07.105Z,101650.13
2023-02-25T21:17:28.904Z,101656.66
2023-02-25T21:22:50.655Z,101659.16
2023-02-25T21:28:15.364Z,101665.47
2023-02-25T21:33:39.693Z,101668.94
2023-02-25T21:39:01.534Z,101669.53
2023-02-25T21:44:23.568Z,101669.94
2023-02-25T21:49:45.602Z,101671.91
2023-02-25T21:55:08.404Z,101677.72
2023-02-25T22:00:30.126Z,101680.09
2023-02-25T22:05:51.908Z,101680.34
2023-02-25T22:11:16.080Z,101679.38
2023-02-25T22:16:39.110Z,101679.84
2023-02-25T22:22:00.805Z,101696.50
2023-02-25T22:27:23.126Z,101685.13
2023-02-25T22:32:44.831Z,101694.81
2023-02-25T22:38:06.760Z,101690.69
2023-02-25T22:43:29.920Z,101697.66
2023-02-25T22:48:52.416Z,101698.47
2023-02-25T22:54:16.527Z,101704.56
2023-02-25T22:59:38.364Z,101702.75
2023-02-25T23:05:00.774Z,101711.16
2023-02-25T23:10:24.413Z,101707.84
2023-02-25T23:15:47.982Z,101715.63
2023-02-25T23:21:15.869Z,101720.38
2023-02-25T23:26:40.407Z,101719.13
2023-02-25T23:32:03.186Z,101723.91
2023-02-25T23:37:25.029Z,101723.97
2023-02-25T23:42:46.809Z,101724.19
2023-02-25T23:48:08.881Z,101717.88
2023-02-25T23:53:30.814Z,101728.78
2023-02-25T23:58:56.969Z,101730.56
